createdAt,value
2018-08-27T00:00:17.941Z,3.00
2018-08-27T00:04:26.237Z,2.80
2018-08-27T00:08:34.507Z,3.00
2018-08-27T00:12:42.825Z,2.80
2018-08-27T00:16:51.125Z,2.67
2018-08-27T00:20:59.475Z,2.60
2018-08-27T00:25:07.786Z,2.87
2018-08-27T00:29:16.089Z,2.60
2018-08-27T00:33:24.426Z,2.60
2018-08-27T00:37:32.747Z,2.80
2018-08-27T00:41:41.079Z,2.70
2018-08-27T00:45:49.432Z,3.47
2018-08-27T00:49:57.771Z,3.37
2018-08-27T00:54:06.064Z,2.50
2018-08-27T00:58:14.437Z,2.80
2018-08-27T01:02:22.710Z,2.80
2018-08-27T01:06:31.063Z,2.93
2018-08-27T01:10:39.387Z,2.93
2018-08-27T01:14:47.726Z,2.87
2018-08-27T01:18:56.053Z,2.87
2018-08-27T01:23:04.448Z,3.37
2018-08-27T01:27:12.781Z,3.00
2018-08-27T01:31:21.111Z,3.40
2018-08-27T01:35:29.436Z,2.73
2018-08-27T01:39:37.765Z,3.20
2018-08-27T01:43:46.165Z,2.93
2018-08-27T01:47:54.473Z,3.37
2018-08-27T01:52:02.823Z,3.20
2018-08-27T01:56:11.151Z,3.17
2018-08-27T02:00:19.490Z,3.00
2018-08-27T02:04:27.968Z,3.10
2018-08-27T02:08:36.276Z,3.57
2018-08-27T02:12:44.546Z,3.00
2018-08-27T02:16:52.992Z,4.00
2018-08-27T02:21:01.382Z,3.87
2018-08-27T02:25:09.653Z,3.60
2018-08-27T02:29:17.944Z,3.53
2018-08-27T02:33:26.229Z,4.50
2018-08-27T02:37:34.533Z,4.13
2018-08-27T02:41:43.554Z,3.70
2018-08-27T02:45:51.838Z,3.40
2018-08-27T02:50:00.166Z,3.67
2018-08-27T02:54:08.433Z,4.07
2018-08-27T02:58:16.782Z,4.53
2018-08-27T03:02:25.049Z,3.90
2018-08-27T03:06:33.344Z,4.27
2018-08-27T03:10:41.708Z,4.70
2018-08-27T03:14:50.012Z,5.40
2018-08-27T03:18:58.367Z,4.63
2018-08-27T03:23:06.680Z,5.20
2018-08-27T03:27:14.973Z,3.80
2018-08-27T03:31:23.301Z,4.77
2018-08-27T03:35:31.587Z,4.50
2018-08-27T03:39:39.907Z,4.77
2018-08-27T03:43:48.225Z,4.47
2018-08-27T03:47:56.474Z,4.80
2018-08-27T03:52:04.791Z,4.57
2018-08-27T03:56:13.108Z,4.60
2018-08-27T04:00:21.415Z,4.80
2018-08-27T04:04:29.729Z,5.43
2018-08-27T04:08:38.024Z,5.37
2018-08-27T04:12:46.306Z,5.10
2018-08-27T04:16:54.608Z,4.80
2018-08-27T04:21:02.896Z,4.62
2018-08-27T04:25:11.217Z,4.03
2018-08-27T04:29:19.521Z,4.40
2018-08-27T04:33:27.837Z,4.77
2018-08-27T04:37:36.111Z,4.10
2018-08-27T04:41:44.441Z,4.90
2018-08-27T04:45:52.772Z,5.50
2018-08-27T04:50:01.045Z,4.97
2018-08-27T04:54:09.392Z,5.33
2018-08-27T04:58:17.685Z,5.20
2018-08-27T05:02:26.000Z,6.37
2018-08-27T05:06:34.022Z,5.30
2018-08-27T05:10:42.329Z,5.53
2018-08-27T05:14:50.682Z,5.30
2018-08-27T05:18:59.044Z,5.30
2018-08-27T05:23:07.390Z,5.13
2018-08-27T05:27:15.699Z,5.20
2018-08-27T05:31:24.044Z,6.53
2018-08-27T05:35:36.339Z,5.87
2018-08-27T05:39:50.322Z,5.20
2018-08-27T05:43:58.694Z,4.90
2018-08-27T05:48:07.051Z,5.37
2018-08-27T05:52:15.429Z,6.30
2018-08-27T05:56:23.786Z,5.93
2018-08-27T06:00:32.130Z,5.03
2018-08-27T06:04:40.408Z,5.70
2018-08-27T06:08:48.789Z,6.17
2018-08-27T06:12:57.162Z,6.60
2018-08-27T06:17:05.639Z,5.63
2018-08-27T06:21:13.957Z,5.30
2018-08-27T06:25:22.264Z,5.10
2018-08-27T06:29:30.578Z,5.57
2018-08-27T06:33:38.853Z,5.60
2018-08-27T06:37:47.161Z,5.40
2018-08-27T06:41:55.466Z,5.40
2018-08-27T06:46:03.782Z,6.27
2018-08-27T06:50:12.033Z,5.12
2018-08-27T06:54:20.336Z,5.70
2018-08-27T06:58:28.657Z,6.03
2018-08-27T07:02:36.965Z,7.27
2018-08-27T07:06:45.268Z,5.07
2018-08-27T07:10:54.275Z,5.87
2018-08-27T07:15:02.600Z,6.07
2018-08-27T07:19:10.924Z,6.07
2018-08-27T07:23:19.253Z,6.33
2018-08-27T07:27:27.666Z,5.13
2018-08-27T07:31:35.881Z,5.60
2018-08-27T07:35:44.189Z,5.43
2018-08-27T07:39:52.469Z,6.17
2018-08-27T07:44:00.518Z,5.90
2018-08-27T07:48:08.812Z,6.17
2018-08-27T07:52:17.164Z,6.80
2018-08-27T07:56:25.445Z,5.77
2018-08-27T08:00:33.762Z,5.70
2018-08-27T08:04:42.162Z,5.80
2018-08-27T08:08:50.432Z,6.80
2018-08-27T08:12:58.761Z,5.40
2018-08-27T08:17:07.050Z,5.70
2018-08-27T08:21:15.119Z,5.40
2018-08-27T08:25:23.450Z,5.43
2018-08-27T08:29:31.757Z,5.30
2018-08-27T08:33:41.855Z,5.60
2018-08-27T08:37:50.125Z,5.20
2018-08-27T08:41:58.420Z,4.70
2018-08-27T08:46:06.764Z,5.90
2018-08-27T08:50:15.068Z,4.90
2018-08-27T08:54:23.359Z,4.70
2018-08-27T08:58:31.669Z,4.53
2018-08-27T09:02:40.046Z,5.50
2018-08-27T09:06:48.356Z,5.57
2018-08-27T09:10:56.762Z,5.10
2018-08-27T09:15:06.684Z,6.40
2018-08-27T09:19:14.977Z,6.50
2018-08-27T09:23:23.347Z,5.80
2018-08-27T09:27:31.698Z,5.53
2018-08-27T09:31:40.041Z,6.77
2018-08-27T09:35:48.333Z,6.50
2018-08-27T09:39:56.642Z,5.90
2018-08-27T09:44:05.099Z,6.57
2018-08-27T09:48:13.433Z,6.30
2018-08-27T09:52:21.886Z,7.67
2018-08-27T09:56:30.192Z,6.58
2018-08-27T10:00:44.109Z,6.43
2018-08-27T10:04:52.462Z,6.23
2018-08-27T10:09:00.925Z,5.90
2018-08-27T10:13:09.294Z,6.08
2018-08-27T10:17:17.695Z,5.63
2018-08-27T10:21:26.067Z,6.13
2018-08-27T10:25:34.178Z,4.90
2018-08-27T10:29:42.550Z,5.20
2018-08-27T10:33:50.871Z,5.00
2018-08-27T10:37:59.225Z,5.03
2018-08-27T10:42:07.718Z,4.33
2018-08-27T10:46:16.072Z,4.70
2018-08-27T10:50:24.371Z,4.40
2018-08-27T10:54:32.677Z,4.63
2018-08-27T10:58:41.292Z,4.57
2018-08-27T11:02:49.711Z,4.37
2018-08-27T11:06:58.042Z,4.43
2018-08-27T11:11:06.369Z,3.83
2018-08-27T11:15:15.161Z,4.75
2018-08-27T11:19:23.467Z,3.87
2018-08-27T11:23:31.829Z,3.90
2018-08-27T11:27:40.144Z,4.13
2018-08-27T11:31:48.914Z,4.47
2018-08-27T11:35:57.209Z,3.70
2018-08-27T11:40:08.667Z,4.27
2018-08-27T11:44:16.952Z,4.33
2018-08-27T11:48:25.230Z,5.10
2018-08-27T11:52:33.503Z,4.67
2018-08-27T11:56:41.780Z,4.67
2018-08-27T12:00:53.910Z,4.80
2018-08-27T12:05:02.222Z,5.03
2018-08-27T12:09:10.796Z,5.67
2018-08-27T12:13:19.129Z,6.73
2018-08-27T12:17:27.434Z,5.83
2018-08-27T12:21:35.800Z,5.10
2018-08-27T12:25:44.115Z,6.20
2018-08-27T12:29:52.410Z,6.30
2018-08-27T12:34:00.777Z,5.70
2018-08-27T12:38:09.096Z,4.90
2018-08-27T12:42:17.431Z,6.33
2018-08-27T12:46:25.841Z,5.50
2018-08-27T12:50:34.139Z,5.60
2018-08-27T12:54:42.863Z,5.53
2018-08-27T12:58:51.268Z,5.00
2018-08-27T13:02:59.594Z,5.80
2018-08-27T13:07:08.037Z,5.70
2018-08-27T13:11:16.316Z,5.03
2018-08-27T13:15:24.642Z,6.77
2018-08-27T13:19:33.014Z,8.40
2018-08-27T13:23:41.435Z,5.80
2018-08-27T13:27:49.750Z,5.83
2018-08-27T13:31:58.170Z,7.47
2018-08-27T13:36:06.389Z,6.97
2018-08-27T13:40:14.839Z,6.27
2018-08-27T13:44:22.985Z,6.00
2018-08-27T13:48:31.280Z,5.63
2018-08-27T13:52:39.569Z,6.10
2018-08-27T13:56:47.850Z,6.53
2018-08-27T14:00:56.157Z,6.40
2018-08-27T14:05:04.514Z,6.20
2018-08-27T14:09:12.833Z,5.83
2018-08-27T14:13:21.128Z,7.33
2018-08-27T14:17:29.451Z,7.00
2018-08-27T14:21:37.750Z,6.40
2018-08-27T14:25:46.096Z,6.23
2018-08-27T14:29:55.042Z,6.37
2018-08-27T14:34:03.375Z,6.30
2018-08-27T14:38:11.694Z,6.40
2018-08-27T14:42:20.087Z,6.53
2018-08-27T14:46:28.314Z,5.97
2018-08-27T14:50:36.632Z,6.50
2018-08-27T14:54:44.957Z,7.30
2018-08-27T14:58:53.262Z,8.00
2018-08-27T15:03:01.545Z,7.10
2018-08-27T15:07:09.835Z,7.10
2018-08-27T15:11:18.137Z,8.37
2018-08-27T15:15:26.437Z,8.50
2018-08-27T15:19:34.779Z,7.78
2018-08-27T15:23:43.121Z,7.90
2018-08-27T15:27:51.202Z,7.93
2018-08-27T15:31:59.571Z,8.43
2018-08-27T15:36:07.861Z,7.22
2018-08-27T15:40:16.173Z,6.93
2018-08-27T15:44:24.517Z,9.00
2018-08-27T15:48:32.883Z,9.13
2018-08-27T15:52:42.158Z,9.03
2018-08-27T15:56:50.483Z,8.23
2018-08-27T16:00:58.785Z,9.00
2018-08-27T16:05:07.512Z,8.40
2018-08-27T16:09:15.800Z,7.77
2018-08-27T16:13:24.123Z,6.43
2018-08-27T16:17:32.382Z,6.53
2018-08-27T16:21:40.710Z,8.13
2018-08-27T16:25:49.031Z,8.50
2018-08-27T16:29:57.345Z,7.43
2018-08-27T16:34:05.662Z,7.10
2018-08-27T16:38:13.965Z,9.37
2018-08-27T16:42:22.336Z,9.10
2018-08-27T16:46:30.742Z,10.17
2018-08-27T16:50:39.077Z,10.00
2018-08-27T16:54:47.406Z,11.20
2018-08-27T16:58:55.719Z,9.83
2018-08-27T17:03:04.040Z,11.13
2018-08-27T17:07:12.417Z,10.47
2018-08-27T17:11:20.713Z,9.40
2018-08-27T17:15:29.119Z,10.73
2018-08-27T17:19:37.469Z,9.37
2018-08-27T17:23:45.776Z,8.68
2018-08-27T17:27:54.082Z,9.10
2018-08-27T17:32:02.430Z,9.20
2018-08-27T17:36:10.769Z,9.73
2018-08-27T17:40:19.129Z,10.63
2018-08-27T17:44:27.472Z,8.83
2018-08-27T17:48:35.754Z,9.20
2018-08-27T17:52:44.111Z,10.30
2018-08-27T17:56:52.423Z,9.10
2018-08-27T18:01:00.775Z,10.20
2018-08-27T18:05:09.131Z,8.80
2018-08-27T18:09:17.237Z,8.70
2018-08-27T18:13:25.586Z,8.80
2018-08-27T18:17:33.893Z,8.50
2018-08-27T18:21:42.557Z,9.63
2018-08-27T18:25:50.864Z,7.60
2018-08-27T18:29:59.224Z,7.10
2018-08-27T18:34:07.704Z,7.03
2018-08-27T18:38:16.095Z,8.00
2018-08-27T18:42:24.339Z,7.30
2018-08-27T18:46:32.644Z,8.83
2018-08-27T18:50:40.909Z,8.60
2018-08-27T18:54:49.217Z,8.13
2018-08-27T18:58:57.508Z,8.43
2018-08-27T19:03:06.034Z,8.50
2018-08-27T19:07:14.321Z,11.50
2018-08-27T19:11:22.652Z,9.20
2018-08-27T19:15:31.008Z,7.87
2018-08-27T19:19:39.358Z,7.63
2018-08-27T19:23:47.679Z,8.40
2018-08-27T19:27:55.998Z,6.27
2018-08-27T19:32:04.331Z,8.48
2018-08-27T19:36:12.819Z,7.60
2018-08-27T19:40:20.967Z,8.30
2018-08-27T19:44:29.234Z,6.67
2018-08-27T19:48:37.557Z,7.30
2018-08-27T19:52:45.902Z,7.47
2018-08-27T19:56:54.191Z,7.37
2018-08-27T20:01:02.514Z,7.10
2018-08-27T20:05:10.866Z,5.70
2018-08-27T20:09:19.158Z,5.75
2018-08-27T20:13:27.457Z,5.50
2018-08-27T20:17:35.775Z,5.00
2018-08-27T20:21:44.114Z,4.53
2018-08-27T20:25:52.480Z,4.77
2018-08-27T20:30:00.758Z,5.23
2018-08-27T20:34:09.064Z,4.60
2018-08-27T20:38:17.460Z,4.17
2018-08-27T20:42:25.783Z,5.70
2018-08-27T20:46:34.105Z,5.20
2018-08-27T20:50:42.504Z,5.10
2018-08-27T20:54:50.797Z,4.63
2018-08-27T20:58:59.121Z,5.50
2018-08-27T21:03:07.491Z,5.43
2018-08-27T21:07:15.770Z,6.57
2018-08-27T21:11:24.098Z,4.90
2018-08-27T21:15:32.404Z,5.83
2018-08-27T21:19:40.749Z,4.83
2018-08-27T21:23:49.076Z,4.67
2018-08-27T21:27:57.420Z,5.30
2018-08-27T21:32:05.849Z,4.90
2018-08-27T21:36:14.170Z,5.50
2018-08-27T21:40:22.568Z,5.33
2018-08-27T21:44:30.916Z,5.67
2018-08-27T21:48:39.244Z,5.47
2018-08-27T21:52:47.525Z,5.47
2018-08-27T21:56:55.858Z,4.63
2018-08-27T22:01:04.137Z,4.95
2018-08-27T22:05:12.437Z,6.63
2018-08-27T22:09:20.721Z,5.70
2018-08-27T22:13:29.054Z,5.50
2018-08-27T22:17:37.322Z,5.23
2018-08-27T22:21:45.586Z,6.00
2018-08-27T22:25:53.894Z,5.77
2018-08-27T22:30:02.189Z,5.40
2018-08-27T22:34:10.470Z,5.47
2018-08-27T22:38:18.779Z,4.70
2018-08-27T22:42:27.088Z,5.30
2018-08-27T22:46:35.376Z,5.57
2018-08-27T22:50:43.646Z,5.33
2018-08-27T22:54:51.943Z,5.17
2018-08-27T22:59:00.252Z,5.10
2018-08-27T23:03:13.909Z,6.30
2018-08-27T23:07:22.229Z,5.80
2018-08-27T23:11:30.532Z,6.33
2018-08-27T23:15:38.793Z,7.67
2018-08-27T23:19:47.118Z,5.47
2018-08-27T23:23:55.399Z,5.00
2018-08-27T23:28:03.653Z,5.00
2018-08-27T23:32:12.015Z,5.93
2018-08-27T23:36:20.294Z,5.70
2018-08-27T23:40:28.605Z,5.93
2018-08-27T23:44:36.892Z,5.77
2018-08-27T23:48:45.173Z,5.93
2018-08-27T23:52:53.490Z,6.50
2018-08-27T23:57:01.772Z,6.73
